NTAA/PPT METAR and TAF weather

Enter ICAO airport designator
Station Type Date Time Source
NTAA METAR 2022/11/30 11:00 UTC NOAA

NTAA 301100Z 00000KT 9999 FEW020 25/22 Q1011 NOSIG


Station Type Date Time Source
NTAA Decoded METAR 2022/11/30 11:00 UTC NOAA

Tahiti-Faaa, French Polynesia (NTAA) 17-33S 149-37W 2M
Nov 30, 2022 - 06:00 AM EST / 2022.11.30 1100 UTC
Wind: Calm:0
Visibility: greater than 7 mile(s):0
Sky conditions: mostly clear
Temperature: 77 F (25 C)
Dew Point: 71 F (22 C)
Relative Humidity: 83%
Pressure (altimeter): 29.85 in. Hg (1011 hPa)
ob: NTAA 301100Z 00000KT 9999 FEW020 25/22 Q1011 NOSIG
cycle: 11

Station Type Date Time Source
NTAA TAF 2022/11/30 06:58 UTC NOAA

TAF NTAA 300500Z 3006/0112 VRB05KT 9999 FEW020 SCT050
TEMPO 3020/0103 05013KT

Example: see airport list